Huvudsida
METAR-TAF:

METAR-TAF

Flygplatser :

Sumburgh Airport

Sumburgh, Shetlandsöarna, Skottland

latitud: 59-53N, longitud: 001-18W, höjd: 5 m

Aktuellt väderrapport

Denna rapport gjordes för 36 minuter sedan, klockan 00:20 UTC
Vind 18 kt från sydost
Temperatur 9°C
Fuktighet 81%
Tryck 1010 hPa
Sikt 10 km eller mer

METAR: EGPB 230020Z AUTO 14018KT 9999 NCD 09/06 Q1010

Tid: 01:56 (00:56 UTC)

Väderprognos

Denna rapport gjordes för 1 timme och 58 minuter sedan, klockan 22:58 UTC
Prognos gäller från 23 kl. 00 UTC till 23 kl. 09 UTC
Vind 17 kt från syd/sydost
Sikt 10 km eller mer
Inga moln under 1 500 m eller inga cumulonimbus
Temporärt
från 23 kl. 00 UTC till 23 kl. 06 UTC
Vind 20 kt från sydost i byarna ända upp till 30 kt
Temporärt
från 23 kl. 06 UTC till 23 kl. 09 UTC
Vind 25 kt från syd/sydost i byarna ända upp till 35 kt

TAF: EGPB 222258Z 2300/2309 15017KT CAVOK TEMPO 2300/2306 14020G30KT TEMPO 2306/2309 15025G35KT

Aktuella väderrapporter och prognoser från 4000 flygplatser (METAR- och TAF-rapporter).

De tillgängliga stationerna syns som gula och röda prickar på kartan.

För musen över prickarna för att se namnen på stationerna.

Klicka sedan för att få väderrapporter och prognoser.

För att ändra kartan: Klicka på de gröna knapparna med ett svart kors på för att zooma in; den gröna knappen med ett streck på för att zooma ut; eller på de gröna pilarna för angränsande kartor.


METAR-TAF: